Nueve de Julio, Argentina
Current Conditions -  °F | °C
As of 1:00 AM on Saturday 20 Dec 2014 (Local Time) from SAEZ Reporting Station
Clear Clear  
Wind Chill: 81°   Ceiling: Unl
Heat Index: 82°   Visibility: 6mi
Dew Point: 63°   Wind: 8mph
Humidity: 54%   Direction: 360°N
Pressure: 29.53"   Gusts: NA
Location:  35.45°S, 60.87°W
Report Text: SAEZ 200400Z 36007KT 340V030 CAVOK 27/17 Q1000
Loading
Personal Weather Stations






























Interactive Weather Map New forecast layout! Learn more

10-Day Weather Forecast

Advertisements
Track Severe Weather on mobile